Time;durP1;ratioP1;P1;durP2;ratioP2;P2;SDS_P1;SDS_P2;PMS_P1;PMS_P2;Temp;Humidity;BMP_temperature;BMP_pressure;BME280_temperature;BME280_humidity;BME280_pressure;Samples;Min_cycle;Max_cycle;Signal;HPM_P1;HPM_P2
2022/01/17 00:00:20;;;;;;;448.25;226.93;;;;;;;1.66;51.39;95708.25;5011413;28;20233;-75
2022/01/17 00:02:50;;;;;;;427.98;213.50;;;;;;;1.60;51.59;95711.53;5012192;28;20264;-74
2022/01/17 00:05:17;;;;;;;479.58;251.13;;;;;;;1.50;52.11;95703.25;5012495;28;20202;-74
2022/01/17 00:07:45;;;;;;;536.95;293.02;;;;;;;1.30;52.68;95699.59;5012363;28;20248;-73
2022/01/17 00:10:12;;;;;;;479.42;250.13;;;;;;;1.20;53.04;95693.94;5012464;28;20617;-73
2022/01/17 00:12:44;;;;;;;494.17;255.75;;;;;;;1.25;52.44;95686.44;5012248;28;20217;-72
2022/01/17 00:15:21;;;;;;;489.33;255.27;;;;;;;1.39;52.83;95698.53;5010927;28;20195;-73
2022/01/17 00:17:57;;;;;;;490.45;261.20;;;;;;;1.48;52.45;95697.50;5010912;28;20271;-74
2022/01/17 00:20:27;;;;;;;512.90;277.63;;;;;;;0.87;54.37;95688.31;5012279;28;20216;-73
2022/01/17 00:22:54;;;;;;;490.95;260.05;;;;;;;1.29;53.40;95698.03;5011651;28;20221;-74
2022/01/17 00:25:21;;;;;;;488.17;247.48;;;;;;;1.29;53.18;95698.84;5012174;28;20723;-72
2022/01/17 00:27:48;;;;;;;454.10;229.52;;;;;;;1.34;52.43;95700.84;5011901;28;20197;-73
2022/01/17 00:30:15;;;;;;;434.98;223.43;;;;;;;1.37;52.32;95703.09;5011790;28;20194;-74
2022/01/17 00:32:42;;;;;;;432.13;215.65;;;;;;;1.14;52.80;95704.97;5011482;28;20197;-72
2022/01/17 00:35:09;;;;;;;435.13;219.10;;;;;;;0.95;53.30;95708.84;5011873;28;20194;-74
2022/01/17 00:37:36;;;;;;;409.63;195.65;;;;;;;0.74;54.57;95719.88;5011905;28;20228;-74
2022/01/17 00:40:05;;;;;;;398.30;192.15;;;;;;;0.64;54.36;95708.97;5011736;28;20229;-73
2022/01/17 00:42:32;;;;;;;408.70;194.85;;;;;;;0.68;54.91;95704.28;5011284;28;20241;-72
2022/01/17 00:45:02;;;;;;;400.88;188.75;;;;;;;0.32;56.14;95714.41;5010921;28;20194;-74
2022/01/17 00:47:29;;;;;;;419.58;201.38;;;;;;;0.35;55.63;95706.31;5011513;28;20586;-74
2022/01/17 00:49:56;;;;;;;405.27;195.27;;;;;;;0.51;55.07;95693.28;5011224;28;20655;-72
2022/01/17 00:52:22;;;;;;;411.25;205.25;;;;;;;0.41;55.60;95703.06;5011203;28;20197;-73
2022/01/17 00:54:49;;;;;;;441.70;224.95;;;;;;;0.21;56.38;95712.22;5011029;28;20669;-74
2022/01/17 00:57:17;;;;;;;432.23;214.85;;;;;;;-0.32;58.40;95700.16;5010136;28;20201;-73
2022/01/17 00:59:44;;;;;;;451.77;237.98;;;;;;;-0.41;59.06;95698.59;5011137;28;20201;-73
2022/01/17 01:02:11;;;;;;;455.52;237.48;;;;;;;-0.03;58.15;95704.66;5011641;28;20257;-71
2022/01/17 01:04:38;;;;;;;402.52;187.32;;;;;;;0.77;55.59;95698.06;5011208;28;20198;-72
2022/01/17 01:07:05;;;;;;;368.00;171.68;;;;;;;0.22;56.72;95700.94;5011177;28;20292;-71
2022/01/17 01:09:38;;;;;;;329.65;150.32;;;;;;;0.40;55.76;95696.28;5011047;28;20211;-72
2022/01/17 01:12:05;;;;;;;297.88;136.82;;;;;;;0.39;55.71;95689.53;5011219;28;20743;-72
2022/01/17 01:14:32;;;;;;;354.05;161.13;;;;;;;0.38;55.07;95682.78;5011261;28;20220;-74
2022/01/17 01:17:07;;;;;;;294.88;135.43;;;;;;;0.29;55.03;95678.69;5011002;28;20269;-74
2022/01/17 01:19:40;;;;;;;309.55;144.98;;;;;;;0.18;55.17;95679.09;5011436;28;20216;-74
2022/01/17 01:27:57;;;;;;;263.33;127.35;;;;;;;0.25;54.74;95667.09;5009674;28;20267;-75
2022/01/17 01:30:27;;;;;;;266.65;124.05;;;;;;;0.44;54.66;95676.91;5011232;28;20586;-73
2022/01/17 01:32:57;;;;;;;294.40;138.02;;;;;;;0.51;54.48;95675.25;5010951;28;20202;-74
2022/01/17 01:35:27;;;;;;;330.90;145.15;;;;;;;0.24;55.27;95655.19;5010563;28;20194;-73
2022/01/17 01:37:59;;;;;;;288.95;135.30;;;;;;;0.31;55.47;95671.53;5010240;28;20190;-73
2022/01/17 01:40:27;;;;;;;311.20;144.73;;;;;;;0.22;55.79;95672.59;5011082;28;20696;-71
2022/01/17 01:42:55;;;;;;;290.35;137.65;;;;;;;0.42;55.14;95676.28;5010390;28;20217;-74
2022/01/17 01:45:22;;;;;;;289.52;130.73;;;;;;;-0.15;56.48;95669.97;5010243;28;20206;-73
2022/01/17 01:47:49;;;;;;;253.68;120.65;;;;;;;-0.08;56.84;95660.59;5009863;28;20211;-74
2022/01/17 01:50:16;;;;;;;174.70;83.88;;;;;;;-0.03;56.10;95673.75;5010444;28;20202;-72
2022/01/17 01:52:43;;;;;;;147.18;70.25;;;;;;;-0.21;56.72;95668.06;5010268;28;20276;-72
2022/01/17 01:55:16;;;;;;;133.40;61.70;;;;;;;-0.64;57.46;95663.47;5010640;28;20558;-73
2022/01/17 01:57:44;;;;;;;89.40;43.55;;;;;;;-0.62;57.28;95667.47;5010264;28;20202;-71
2022/01/17 02:00:13;;;;;;;84.35;40.17;;;;;;;-1.35;59.09;95663.56;5009981;28;20691;-73
2022/01/17 02:02:40;;;;;;;82.75;43.90;;;;;;;-0.81;57.82;95644.72;5010145;28;20229;-73
2022/01/17 02:05:08;;;;;;;86.72;43.65;;;;;;;-1.02;58.55;95653.97;5010099;28;20633;-73
2022/01/17 02:07:36;;;;;;;85.28;44.28;;;;;;;-0.82;58.20;95660.34;5010313;28;20182;-73
2022/01/17 02:10:04;;;;;;;97.85;49.13;;;;;;;-0.34;57.53;95649.78;5010436;28;20197;-74
2022/01/17 02:12:32;;;;;;;101.90;50.85;;;;;;;-0.29;57.77;95648.31;5010263;28;20210;-72
2022/01/17 02:14:59;;;;;;;97.78;46.25;;;;;;;-0.06;56.96;95645.75;5025138;28;20620;-73
2022/01/17 02:17:27;;;;;;;98.28;48.97;;;;;;;0.08;56.32;95634.69;5031902;28;20233;-73
2022/01/17 02:20:05;;;;;;;100.15;48.53;;;;;;;-0.57;57.87;95618.88;5023870;28;20267;-72
2022/01/17 02:22:33;;;;;;;97.13;47.83;;;;;;;0.00;56.88;95639.94;5010215;28;20225;-72
2022/01/17 02:25:01;;;;;;;116.68;57.97;;;;;;;0.08;56.29;95628.72;5010059;28;20579;-71
2022/01/17 02:27:27;;;;;;;94.18;48.17;;;;;;;0.12;56.21;95635.16;5009778;28;20190;-71
2022/01/17 02:29:54;;;;;;;92.88;47.72;;;;;;;0.11;55.89;95631.75;5009946;28;20566;-73
2022/01/17 02:32:21;;;;;;;95.30;47.17;;;;;;;0.23;55.76;95643.28;5009081;28;20194;-72
2022/01/17 02:34:49;;;;;;;104.72;51.80;;;;;;;0.11;55.67;95638.72;5008976;28;20259;-73
2022/01/17 02:37:18;;;;;;;117.78;57.92;;;;;;;0.26;55.38;95642.91;5009563;28;20182;-72
2022/01/17 02:39:45;;;;;;;160.30;76.57;;;;;;;-0.38;55.42;95581.59;5009508;28;20292;-72
2022/01/17 02:42:16;;;;;;;157.35;74.35;;;;;;;0.14;55.38;95649.47;5009829;28;20232;-72
2022/01/17 02:44:45;;;;;;;231.23;105.40;;;;;;;-0.26;56.44;95642.03;5009956;28;20200;-72
2022/01/17 02:47:16;;;;;;;247.00;115.68;;;;;;;-0.40;56.80;95643.53;5010096;28;20201;-72
2022/01/17 02:49:43;;;;;;;253.10;118.47;;;;;;;-0.59;56.66;95635.47;5009943;28;20197;-71
2022/01/17 02:52:10;;;;;;;224.60;106.47;;;;;;;0.76;53.34;95603.63;5009981;28;20197;-72
2022/01/17 02:54:38;;;;;;;227.27;109.22;;;;;;;1.38;51.74;95619.50;5008657;28;20253;-73
2022/01/17 02:57:07;;;;;;;247.68;111.03;;;;;;;0.44;53.10;95643.41;5008906;28;20681;-73
2022/01/17 02:59:34;;;;;;;241.90;115.18;;;;;;;0.34;53.44;95640.28;5009162;28;20288;-73
2022/01/17 03:02:03;;;;;;;252.63;118.78;;;;;;;-0.24;55.17;95645.25;5009328;28;20272;-72
2022/01/17 03:04:33;;;;;;;243.25;116.75;;;;;;;-0.26;55.01;95636.88;5009283;28;20186;-71
2022/01/17 03:07:00;;;;;;;241.82;116.03;;;;;;;-0.33;55.09;95635.97;5009257;28;20198;-71
2022/01/17 03:09:32;;;;;;;238.52;115.80;;;;;;;-0.52;55.09;95597.78;5010680;28;20220;-72
2022/01/17 03:11:59;;;;;;;254.02;118.82;;;;;;;-0.81;55.87;95636.22;5014595;28;20214;-73
2022/01/17 03:14:26;;;;;;;246.80;118.10;;;;;;;-0.75;56.72;95645.84;5012945;28;20209;-74
2022/01/17 03:16:55;;;;;;;236.88;111.50;;;;;;;-0.11;55.61;95630.03;5012784;28;20233;-71
2022/01/17 03:19:22;;;;;;;234.18;111.45;;;;;;;-0.20;54.84;95626.69;5012953;28;20559;-72
2022/01/17 03:21:50;;;;;;;237.55;109.10;;;;;;;-0.42;55.56;95627.47;5013042;28;20309;-70
2022/01/17 03:24:17;;;;;;;223.13;108.50;;;;;;;-0.46;55.39;95640.88;5012722;28;20201;-71
2022/01/17 03:26:44;;;;;;;225.68;108.93;;;;;;;-0.48;55.18;95632.50;5013157;28;20201;-72
2022/01/17 03:29:11;;;;;;;222.82;107.00;;;;;;;-0.24;54.66;95630.56;5012507;28;20197;-72
2022/01/17 03:31:38;;;;;;;214.20;103.95;;;;;;;-0.08;54.17;95629.66;5012785;28;20692;-73
2022/01/17 03:34:05;;;;;;;219.13;105.85;;;;;;;-0.22;54.45;95636.34;5012719;28;20636;-72
2022/01/17 03:36:32;;;;;;;216.98;102.13;;;;;;;-0.34;54.85;95626.63;5013120;28;20622;-72
2022/01/17 03:39:00;;;;;;;210.15;101.53;;;;;;;-0.19;54.63;95632.66;5012359;28;20252;-73
2022/01/17 03:41:27;;;;;;;201.55;95.55;;;;;;;-0.55;55.08;95636.72;5012890;28;20222;-72
2022/01/17 03:43:53;;;;;;;200.95;98.35;;;;;;;-0.75;56.13;95633.78;5012327;28;20202;-71
2022/01/17 03:46:20;;;;;;;209.85;99.60;;;;;;;-1.13;56.95;95653.34;5012579;28;20773;-72
2022/01/17 03:48:47;;;;;;;185.05;89.55;;;;;;;-1.31;57.45;95652.75;5012289;28;20233;-72
2022/01/17 03:51:14;;;;;;;186.85;89.25;;;;;;;-1.07;56.95;95649.31;5013019;28;20586;-72
2022/01/17 03:53:41;;;;;;;189.02;90.43;;;;;;;-1.10;56.94;95647.91;5012497;28;20202;-73
2022/01/17 03:56:08;;;;;;;186.00;89.95;;;;;;;-1.03;56.77;95658.31;5012635;28;20212;-72
2022/01/17 03:58:35;;;;;;;189.57;91.78;;;;;;;-0.89;56.14;95662.75;5012369;28;20210;-72
2022/01/17 04:01:03;;;;;;;187.38;93.07;;;;;;;-1.51;58.48;95659.22;5012391;28;20248;-72
2022/01/17 04:03:30;;;;;;;195.02;94.13;;;;;;;-0.89;57.15;95659.41;5012383;28;20611;-72
2022/01/17 04:05:58;;;;;;;192.23;91.38;;;;;;;-0.76;56.57;95659.66;5012400;28;20255;-72
2022/01/17 04:08:25;;;;;;;191.65;90.50;;;;;;;-0.86;57.24;95659.06;5011854;28;20283;-71
2022/01/17 04:10:52;;;;;;;186.57;90.93;;;;;;;-0.59;56.31;95663.78;5012498;28;20205;-73
2022/01/17 04:13:19;;;;;;;190.95;91.30;;;;;;;-0.72;56.34;95632.63;5012443;28;20851;-72
2022/01/17 04:15:46;;;;;;;185.07;88.97;;;;;;;-0.83;57.36;95663.88;5011944;28;20261;-74
2022/01/17 04:18:15;;;;;;;188.23;90.13;;;;;;;-1.02;58.05;95663.28;5011930;28;20198;-72
2022/01/17 04:20:42;;;;;;;175.35;83.28;;;;;;;-0.97;58.05;95651.72;5012172;28;20201;-73
2022/01/17 04:23:11;;;;;;;176.73;79.35;;;;;;;0.30;55.23;95649.34;5011697;28;20220;-73
2022/01/17 04:25:40;;;;;;;146.95;71.28;;;;;;;-0.13;55.72;95652.56;5012165;28;20343;-72
2022/01/17 04:28:09;;;;;;;140.48;67.95;;;;;;;-0.82;56.71;95655.97;5011272;28;20515;-71
2022/01/17 04:30:37;;;;;;;151.18;71.72;;;;;;;-0.28;56.25;95651.69;5011431;28;20732;-71
2022/01/17 04:33:06;;;;;;;141.30;67.53;;;;;;;0.19;54.45;95647.16;5011350;28;20283;-72
2022/01/17 04:35:34;;;;;;;104.45;52.03;;;;;;;0.74;53.16;95657.97;5011707;28;20681;-71
2022/01/17 04:38:05;;;;;;;85.57;41.25;;;;;;;-0.17;54.56;95661.59;5011623;28;20209;-73
2022/01/17 04:40:37;;;;;;;75.72;35.55;;;;;;;-0.98;57.25;95665.53;5011649;28;20666;-73
2022/01/17 04:43:14;;;;;;;76.22;36.10;;;;;;;-0.81;57.14;95651.63;5011602;28;20253;-73
2022/01/17 04:45:40;;;;;;;84.28;37.47;;;;;;;-1.24;57.86;95653.72;5011919;28;20217;-71
2022/01/17 04:48:08;;;;;;;83.10;39.10;;;;;;;-1.08;57.65;95655.44;5011691;28;20190;-72
2022/01/17 04:50:34;;;;;;;93.15;43.78;;;;;;;-1.05;57.55;95658.50;5011739;28;20629;-70
2022/01/17 04:53:03;;;;;;;87.25;43.85;;;;;;;-0.81;57.15;95647.31;5011494;28;20206;-74
2022/01/17 04:55:30;;;;;;;89.88;44.22;;;;;;;-0.65;56.37;95636.94;5011437;28;20190;-73
2022/01/17 04:57:57;;;;;;;78.85;38.28;;;;;;;-0.88;57.04;95650.72;5011387;28;20202;-71
2022/01/17 05:00:26;;;;;;;82.55;41.70;;;;;;;-0.61;56.92;95648.50;5010095;28;20202;-72
2022/01/17 05:02:54;;;;;;;86.20;41.55;;;;;;;-0.47;56.07;95640.06;5006015;28;20237;-72
2022/01/17 05:05:21;;;;;;;91.43;42.70;;;;;;;-0.24;55.95;95633.13;5010057;28;20587;-72
2022/01/17 05:07:48;;;;;;;89.57;43.00;;;;;;;-0.10;55.44;95647.88;5004345;28;20209;-72
2022/01/17 05:10:18;;;;;;;90.75;43.28;;;;;;;-0.09;55.73;95638.34;4999873;28;20190;-74
2022/01/17 05:12:45;;;;;;;113.10;53.42;;;;;;;-0.47;55.99;95628.94;4991099;28;20201;-74
2022/01/17 05:15:28;;;;;;;98.28;46.47;;;;;;;-0.27;55.36;95632.69;4991164;28;20199;-73
2022/01/17 05:20:42;;;;;;;95.38;46.60;;;;;;;0.04;54.99;95651.47;4991832;28;20289;-74
2022/01/17 05:23:10;;;;;;;93.10;46.13;;;;;;;-0.02;54.34;95649.59;5009744;28;20229;-73
2022/01/17 05:25:37;;;;;;;96.10;46.50;;;;;;;-0.20;54.67;95641.34;5011202;28;20205;-71
2022/01/17 05:28:05;;;;;;;93.75;45.25;;;;;;;-0.39;55.42;95644.34;5001033;28;20207;-74
2022/01/17 05:30:34;;;;;;;97.32;45.05;;;;;;;-0.05;54.85;95639.63;4990421;28;20179;-73
2022/01/17 05:33:00;;;;;;;94.45;47.25;;;;;;;-0.34;55.54;95618.91;4990764;28;20198;-72
2022/01/17 05:35:27;;;;;;;105.28;46.95;;;;;;;-0.59;56.11;95643.19;4991245;28;20205;-71
2022/01/17 05:37:54;;;;;;;88.45;45.15;;;;;;;-0.95;57.53;95634.34;4990139;28;20202;-74
2022/01/17 05:40:22;;;;;;;76.95;38.58;;;;;;;-1.22;58.24;95632.97;4990655;28;20194;-70
2022/01/17 05:42:49;;;;;;;72.00;35.15;;;;;;;-0.72;57.76;95635.19;4989851;28;20226;-71
2022/01/17 05:45:17;;;;;;;71.78;35.17;;;;;;;-0.32;56.49;95633.22;4990357;28;20209;-70
2022/01/17 05:47:45;;;;;;;68.22;33.78;;;;;;;0.12;55.94;95633.38;4989512;28;20190;-70
2022/01/17 05:50:13;;;;;;;71.30;34.50;;;;;;;0.30;54.98;95633.88;4989064;28;20202;-71
2022/01/17 05:52:41;;;;;;;125.57;52.95;;;;;;;1.10;53.20;95652.09;4990407;28;20199;-70
2022/01/17 05:55:11;;;;;;;101.28;46.88;;;;;;;0.80;54.41;95652.06;4990445;28;20237;-72
2022/01/17 05:57:38;;;;;;;133.77;72.05;;;;;;;0.68;55.99;95656.09;4990005;28;20205;-73
2022/01/17 06:00:09;;;;;;;76.80;40.83;;;;;;;0.58;54.76;95654.75;4990142;28;20552;-71
2022/01/17 06:02:36;;;;;;;72.28;37.05;;;;;;;0.39;54.70;95673.25;4989982;28;20265;-71
2022/01/17 06:05:03;;;;;;;74.05;38.28;;;;;;;0.34;55.08;95680.72;4990159;28;20210;-71
2022/01/17 06:07:31;;;;;;;73.47;36.95;;;;;;;0.45;54.76;95663.06;4990312;28;20211;-71
2022/01/17 06:09:58;;;;;;;80.25;38.10;;;;;;;-0.13;56.76;95652.56;5005109;28;20202;-69
2022/01/17 06:12:24;;;;;;;76.20;38.30;;;;;;;0.08;56.31;95664.81;4990449;28;20236;-71
2022/01/17 06:14:51;;;;;;;66.72;33.35;;;;;;;0.05;56.46;95676.28;4989638;28;20268;-69
2022/01/17 06:17:18;;;;;;;75.32;37.83;;;;;;;0.12;56.00;95661.72;4989162;28;20294;-72
2022/01/17 06:19:45;;;;;;;169.10;92.32;;;;;;;0.29;55.29;95657.25;4989632;28;20678;-71
2022/01/17 06:22:12;;;;;;;86.57;42.53;;;;;;;0.33;54.98;95668.81;4990107;28;20218;-71
2022/01/17 06:24:39;;;;;;;77.43;38.58;;;;;;;0.29;54.99;95673.53;4990223;28;20206;-70
2022/01/17 06:27:06;;;;;;;73.93;38.90;;;;;;;0.31;54.66;95666.41;4989855;28;20226;-72
2022/01/17 06:29:33;;;;;;;79.05;38.63;;;;;;;0.29;54.66;95678.69;4989828;28;20276;-73
2022/01/17 06:32:00;;;;;;;73.55;38.53;;;;;;;0.73;53.82;95666.66;4990080;28;20206;-73
2022/01/17 06:34:47;;;;;;;73.65;38.72;;;;;;;0.92;53.74;95666.16;4989929;28;20666;-72
2022/01/17 06:37:14;;;;;;;86.43;41.03;;;;;;;1.46;52.33;95655.56;4989890;28;20210;-71
2022/01/17 06:39:42;;;;;;;78.22;39.75;;;;;;;2.05;51.11;95675.06;4989860;28;20249;-72
2022/01/17 06:42:08;;;;;;;77.97;40.90;;;;;;;2.11;51.01;95669.16;4989894;28;20194;-72
2022/01/17 06:44:35;;;;;;;98.57;47.40;;;;;;;2.41;50.09;95660.28;4988835;28;20202;-73
2022/01/17 06:47:03;;;;;;;106.25;54.03;;;;;;;2.62;49.48;95668.03;4989898;28;20265;-72
2022/01/17 06:49:29;;;;;;;99.65;52.97;;;;;;;2.92;49.12;95673.78;4989664;28;20198;-72
2022/01/17 06:51:56;;;;;;;101.95;51.10;;;;;;;2.99;48.50;95678.03;4990126;28;20225;-73
2022/01/17 06:54:23;;;;;;;84.60;46.25;;;;;;;1.72;51.62;95681.66;4989477;28;20205;-73
2022/01/17 06:56:50;;;;;;;82.75;43.42;;;;;;;1.68;52.23;95672.69;4989714;28;20207;-71
2022/01/17 06:59:17;;;;;;;95.28;51.88;;;;;;;1.65;52.59;95667.88;4989761;28;20677;-72
2022/01/17 07:01:44;;;;;;;111.05;59.17;;;;;;;2.31;51.35;95672.75;4989594;28;20332;-72
2022/01/17 07:04:11;;;;;;;136.25;69.38;;;;;;;2.61;50.71;95655.28;4989918;28;20222;-73
2022/01/17 07:06:39;;;;;;;147.38;73.80;;;;;;;2.19;52.10;95668.25;4989697;28;20195;-73
2022/01/17 07:09:09;;;;;;;141.35;72.35;;;;;;;2.55;51.02;95650.84;4989030;28;20218;-74
2022/01/17 07:11:38;;;;;;;139.75;73.57;;;;;;;2.69;49.94;95666.28;4990406;28;20209;-73
2022/01/17 07:14:08;;;;;;;150.80;79.00;;;;;;;2.85;50.23;95668.59;4989424;28;20677;-73
2022/01/17 07:16:39;;;;;;;156.07;81.82;;;;;;;3.05;49.59;95672.09;4990066;28;20241;-71
2022/01/17 07:19:07;;;;;;;119.72;58.92;;;;;;;2.57;49.87;95685.91;4991987;28;20225;-72
2022/01/17 07:21:35;;;;;;;92.35;47.67;;;;;;;2.62;49.36;95667.22;4990250;28;20221;-72
2022/01/17 07:24:03;;;;;;;96.10;50.58;;;;;;;3.10;47.85;95685.28;4989870;28;20234;-72
2022/01/17 07:26:30;;;;;;;98.65;48.25;;;;;;;2.75;48.45;95703.56;4990113;28;20265;-72
2022/01/17 07:28:56;;;;;;;86.82;45.33;;;;;;;2.85;48.61;95697.06;4989031;28;20198;-72
2022/01/17 07:31:23;;;;;;;79.88;37.65;;;;;;;2.84;48.49;95682.53;4989570;28;20214;-72
2022/01/17 07:33:56;;;;;;;68.88;34.05;;;;;;;3.09;48.24;95680.28;5003840;28;20210;-71
2022/01/17 07:36:28;;;;;;;63.38;32.58;;;;;;;3.01;47.63;95672.69;5004145;28;20186;-72
2022/01/17 07:38:57;;;;;;;62.85;33.25;;;;;;;3.55;47.01;95665.00;4989113;28;20214;-71
2022/01/17 07:41:25;;;;;;;58.97;32.60;;;;;;;3.97;45.79;95667.34;4999850;28;20678;-71
2022/01/17 07:43:58;;;;;;;65.95;33.78;;;;;;;3.97;46.25;95656.97;4999873;28;20804;-72
2022/01/17 07:46:33;;;;;;;46.05;22.50;;;;;;;3.99;46.64;95650.59;4995322;28;20206;-72
2022/01/17 07:51:30;;;;;;;25.58;13.68;;;;;;;5.23;44.88;95667.16;4989960;28;20222;-71
2022/01/17 07:53:58;;;;;;;23.15;13.20;;;;;;;5.58;44.65;95671.06;4989469;28;20195;-72
2022/01/17 07:56:25;;;;;;;25.02;12.73;;;;;;;5.39;44.54;95684.91;4993140;28;20229;-72
2022/01/17 07:58:52;;;;;;;29.35;12.75;;;;;;;5.48;44.79;95717.47;4993210;28;20194;-72
2022/01/17 08:01:20;;;;;;;20.73;11.60;;;;;;;5.65;43.86;95749.84;4993903;28;20575;-72
2022/01/17 08:03:47;;;;;;;17.20;10.70;;;;;;;5.74;44.19;95740.81;4992941;28;20298;-72
2022/01/17 08:06:14;;;;;;;22.63;11.98;;;;;;;5.93;43.38;95721.78;4993370;28;20194;-71
2022/01/17 08:08:41;;;;;;;22.35;11.07;;;;;;;6.08;43.14;95715.31;4993155;28;20217;-71
2022/01/17 08:11:08;;;;;;;29.35;12.52;;;;;;;6.67;42.97;95673.31;4993513;28;20199;-71
2022/01/17 08:13:35;;;;;;;98.60;52.95;;;;;;;6.78;42.19;95659.59;4993139;28;20221;-71
2022/01/17 08:16:02;;;;;;;28.95;15.35;;;;;;;6.96;41.77;95640.59;4993075;28;20268;-71
2022/01/17 08:18:30;;;;;;;25.75;11.75;;;;;;;6.85;40.76;95643.91;4991252;28;20276;-72
2022/01/17 08:20:58;;;;;;;24.65;10.88;;;;;;;6.74;40.48;95637.59;4992343;28;20199;-70
2022/01/17 08:23:25;;;;;;;20.98;11.15;;;;;;;6.78;40.32;95646.56;4992910;28;20230;-71
2022/01/17 08:25:52;;;;;;;21.80;10.55;;;;;;;7.36;39.84;95667.88;4993089;28;20302;-71
2022/01/17 08:28:21;;;;;;;27.30;11.20;;;;;;;7.55;39.87;95700.78;4992313;28;20194;-71
2022/01/17 08:30:48;;;;;;;36.53;12.25;;;;;;;7.80;40.12;95742.44;4992385;28;20686;-71
2022/01/17 08:33:35;;;;;;;43.33;13.48;;;;;;;7.89;40.19;95767.22;4992628;28;20585;-71
2022/01/17 08:36:03;;;;;;;23.35;11.13;;;;;;;7.69;39.89;95780.47;4994275;28;20232;-70
2022/01/17 08:38:43;;;;;;;21.20;10.38;;;;;;;7.94;39.52;95775.19;4992050;28;20206;-72
2022/01/17 08:41:10;;;;;;;19.15;10.95;;;;;;;7.78;40.25;95729.59;4992905;28;20218;-71
2022/01/17 08:43:37;;;;;;;19.88;10.80;;;;;;;8.13;40.43;95717.56;4992082;28;20611;-70
2022/01/17 08:46:06;;;;;;;14.52;9.65;;;;;;;7.85;39.59;95729.53;4992586;28;20568;-71
2022/01/17 08:48:34;;;;;;;51.25;24.02;;;;;;;7.73;40.46;95694.75;4992058;28;20260;-71
2022/01/17 08:51:00;;;;;;;27.80;13.90;;;;;;;8.24;38.96;95671.66;4992201;28;20211;-70
2022/01/17 08:53:28;;;;;;;23.77;12.27;;;;;;;8.74;39.30;95656.47;4991169;28;20195;-71
2022/01/17 08:55:55;;;;;;;21.10;11.20;;;;;;;8.93;38.39;95609.09;4992256;28;20206;-71
2022/01/17 08:58:22;;;;;;;17.75;11.20;;;;;;;8.44;38.81;95604.28;4990884;28;20591;-70
2022/01/17 09:00:50;;;;;;;21.02;11.63;;;;;;;8.98;39.36;95629.31;4991902;28;20297;-71
2022/01/17 09:03:20;;;;;;;18.63;11.63;;;;;;;9.06;37.62;95618.53;4992064;28;20226;-71
2022/01/17 09:05:48;;;;;;;22.60;11.65;;;;;;;9.54;36.97;95563.31;4991401;28;20197;-71
2022/01/17 09:08:16;;;;;;;24.88;12.30;;;;;;;10.02;36.92;95537.47;4990788;28;20624;-72
2022/01/17 09:10:44;;;;;;;22.05;11.05;;;;;;;9.83;35.77;95551.81;4991669;28;20206;-71
2022/01/17 09:13:11;;;;;;;19.48;11.50;;;;;;;10.03;36.44;95552.19;4991408;28;20584;-73
2022/01/17 09:15:38;;;;;;;18.83;11.27;;;;;;;10.23;35.69;95542.06;4991811;28;20618;-71
2022/01/17 09:18:06;;;;;;;18.30;11.73;;;;;;;10.56;35.35;95552.56;4990756;28;20445;-71
2022/01/17 09:20:34;;;;;;;19.00;10.47;;;;;;;10.45;33.92;95563.94;4990914;28;20449;-72
2022/01/17 09:23:04;;;;;;;21.30;13.27;;;;;;;11.11;33.83;95542.88;4991190;28;21338;-72
2022/01/17 09:25:33;;;;;;;21.47;10.53;;;;;;;10.66;33.58;95544.84;4991589;28;20441;-72
2022/01/17 09:28:00;;;;;;;18.60;10.07;;;;;;;11.34;32.49;95543.66;4991508;28;20569;-72
2022/01/17 09:30:28;;;;;;;14.80;9.47;;;;;;;11.26;32.57;95560.63;4991707;28;20946;-71
2022/01/17 09:32:55;;;;;;;20.63;10.10;;;;;;;11.45;32.89;95571.63;4990997;28;20457;-71
2022/01/17 09:35:23;;;;;;;17.17;10.50;;;;;;;10.85;33.49;95543.56;4991179;28;20512;-71
2022/01/17 09:37:51;;;;;;;14.67;9.70;;;;;;;11.05;33.42;95577.94;4990526;28;20453;-71
2022/01/17 09:40:20;;;;;;;13.83;8.80;;;;;;;10.57;33.68;95559.38;4991311;28;20504;-71
2022/01/17 09:42:47;;;;;;;21.20;9.60;;;;;;;10.41;34.04;95581.16;4990586;28;20921;-71
2022/01/17 09:45:18;;;;;;;17.37;10.00;;;;;;;10.66;34.11;95578.91;4991385;28;20490;-70
2022/01/17 09:47:46;;;;;;;14.83;9.33;;;;;;;10.54;34.06;95559.06;4990501;28;20445;-71
2022/01/17 09:50:18;;;;;;;16.97;10.50;;;;;;;10.45;34.42;95563.94;4991216;28;20477;-70
2022/01/17 09:52:49;;;;;;;20.60;9.27;;;;;;;9.82;34.35;95574.56;4990668;28;20508;-71
2022/01/17 09:55:22;;;;;;;27.90;11.50;;;;;;;9.55;34.95;95585.81;4991379;28;20429;-72
2022/01/17 09:58:07;;;;;;;28.43;13.93;;;;;;;9.49;35.97;95597.22;4990419;28;20449;-70
2022/01/17 10:00:40;;;;;;;21.13;11.52;;;;;;;9.82;36.02;95599.94;4990886;28;20453;-71
2022/01/17 10:03:11;;;;;;;19.40;10.40;;;;;;;9.96;36.03;95588.19;4990712;28;20234;-72
2022/01/17 10:05:38;;;;;;;16.70;10.63;;;;;;;10.37;35.90;95580.03;4990963;28;20430;-72
2022/01/17 10:08:10;;;;;;;18.57;8.83;;;;;;;9.96;36.10;95609.13;4990281;28;20434;-73
2022/01/17 10:10:51;;;;;;;13.73;7.35;;;;;;;9.65;36.91;95591.25;4991142;28;20449;-71
2022/01/17 10:13:23;;;;;;;27.53;7.83;;;;;;;10.27;36.97;95577.25;4991048;28;20195;-71
2022/01/17 10:15:56;;;;;;;15.37;7.30;;;;;;;9.67;36.98;95594.44;4990841;28;20477;-72
2022/01/17 10:18:35;;;;;;;16.93;7.47;;;;;;;9.90;37.17;95586.50;4989999;28;20453;-72
2022/01/17 10:21:09;;;;;;;13.17;6.67;;;;;;;10.17;37.16;95585.72;4990977;28;20493;-71
2022/01/17 10:26:52;;;;;;;11.70;6.35;;;;;;;9.48;37.94;95587.75;4990755;28;20441;-72
2022/01/17 10:35:14;;;;;;;9.63;4.95;;;;;;;9.55;37.59;95557.84;4990332;28;20253;-74
2022/01/17 10:37:58;;;;;;;13.20;5.45;;;;;;;9.53;37.18;95532.91;4990939;28;20658;-73
2022/01/17 10:40:28;;;;;;;11.10;5.20;;;;;;;9.72;37.17;95550.03;4990776;28;20210;-72
2022/01/17 10:42:55;;;;;;;15.77;5.87;;;;;;;9.42;37.74;95538.97;4989740;28;20457;-72
2022/01/17 10:45:25;;;;;;;10.95;5.63;;;;;;;8.89;38.20;95560.91;4991284;28;20833;-72
2022/01/17 10:47:55;;;;;;;9.37;5.20;;;;;;;9.13;38.40;95552.03;4990312;28;20182;-74
2022/01/17 10:50:31;;;;;;;9.25;6.35;;;;;;;9.66;37.65;95550.97;4990977;28;20446;-73
2022/01/17 10:53:05;;;;;;;11.15;6.68;;;;;;;9.97;37.64;95551.28;4990976;28;20282;-71
2022/01/17 10:55:39;;;;;;;9.38;6.20;;;;;;;9.26;37.98;95537.09;4990197;28;20756;-74
2022/01/17 10:58:13;;;;;;;11.60;5.50;;;;;;;8.62;38.89;95562.41;4990047;28;20201;-71
2022/01/17 11:00:43;;;;;;;10.73;6.40;;;;;;;9.02;38.27;95568.53;4990310;28;20963;-72
2022/01/17 11:03:17;;;;;;;10.32;6.35;;;;;;;9.32;37.68;95564.94;4990137;28;20257;-71
2022/01/17 11:05:48;;;;;;;8.73;6.25;;;;;;;9.64;37.73;95558.25;4990582;28;20352;-72
2022/01/17 11:08:16;;;;;;;10.07;6.75;;;;;;;9.67;37.11;95558.56;4989245;28;20206;-72
2022/01/17 11:10:46;;;;;;;12.95;6.15;;;;;;;9.64;36.93;95547.78;4990383;28;20681;-72
2022/01/17 11:13:16;;;;;;;11.03;6.40;;;;;;;9.85;37.12;95549.75;4990196;28;20239;-73
2022/01/17 11:15:46;;;;;;;10.85;6.65;;;;;;;9.33;36.96;95529.91;4993577;28;20883;-74
2022/01/17 11:18:24;;;;;;;9.43;5.50;;;;;;;9.23;36.99;95541.75;4991377;28;20206;-72
2022/01/17 11:20:59;;;;;;;12.85;6.55;;;;;;;9.61;36.59;95528.13;4990052;28;20260;-73
2022/01/17 11:23:27;;;;;;;10.55;6.53;;;;;;;9.77;37.26;95522.16;4990186;28;20213;-73
2022/01/17 11:25:56;;;;;;;12.20;7.50;;;;;;;9.91;36.34;95506.91;4990572;28;20199;-73
2022/01/17 11:28:25;;;;;;;11.30;6.70;;;;;;;9.97;35.90;95501.56;4989544;28;20229;-73
2022/01/17 11:30:55;;;;;;;10.23;7.20;;;;;;;10.41;35.75;95505.16;4992666;28;20441;-73
2022/01/17 11:33:24;;;;;;;9.83;6.93;;;;;;;10.33;35.29;95497.69;4993850;28;20933;-71
2022/01/17 11:35:53;;;;;;;11.63;7.30;;;;;;;10.37;35.37;95488.34;4993838;28;20442;-71
2022/01/17 11:38:40;;;;;;;9.87;7.30;;;;;;;10.20;36.00;95495.41;4993393;28;20865;-68
2022/01/17 11:41:22;;;;;;;153.03;59.50;;;;;;;10.23;35.43;95509.84;4993502;28;20852;-71
2022/01/17 11:43:58;;;;;;;14.43;7.03;;;;;;;10.32;35.36;95517.09;4993476;28;20559;-74
2022/01/17 11:46:30;;;;;;;14.37;6.23;;;;;;;10.22;34.95;95509.03;4993345;28;20445;-74